Detailed Flight Report of Nuri Burak ERKAL ;
Number CXD079 
Departure Aerodrome FSIA 
Arrival Aerodrome LTFM

Map generated by the Great Circle Mapper - copyright © Karl L. Swartz.

Pilot In Command CXD079 : Nuri Burak Erkal
Aircraft B773 / TC-NZL
Date Of Flight 2020-06-18
Departure Time 06:53 UTC
Arrival Time 13:55 UTC
Block Time 07:02
Distance 3,232 Nm.
Used Fuel 32,767 Lbs.
   
Detailed Flight Log [2020/06/18 06:13:00]
Flight IATA:C001
Pilot Number:079
Company ICAO:CXD
Aircraft Type:B773
Aircraft Registration:TC-NZL
Departing Airport: FSIA
Destination Airport: LTFM
Alternate Airport:LTBU
Online: VATSIM
Route:ROUTY T122 ATUTI UW735 AVIMO UL439G ZIZAN B413 DANAK M999 LOVIL B544 JDW L677 PASAM/N0495F360 L677 SHM/N0498F350 R650 NWB/N0496F360 J981 DATOK L550 GENIV L324 TEZAK N128 USEBE M855 TOMBI UA16 KFK UM855 SISPI
Flight Level:FL360
No pause
06:13 Zero fuel Weight: 506658 Lbs, Fuel Weight: 141298 Lbs
06:13 VATSIM:FSIA 171500Z 12006KT 060V200 9999 FEW020 28/23 Q1010 NOSIG
06:13 VATSIM:LTFM 171450Z 03010KT 9999 SCT025 24/19 Q1007 NOSIG
06:16 Parking Brakes off
06:26 VR= 174 Knots
06:26 V2= 182 Knots
06:26 Take-off
06:26 Take off Weight: 646480 Lbs
06:26 Wind: 132º @ 006 Knots Heading: 125º
06:26 POS S04º 40´ 39´´ E055º 31´ 34´´
06:26 N11 100 N12 100
06:26 Flaps
:15º at 184 Knots
06:26 Gear Up: 179 Knots
06:27 Flaps:5º at 186 Knots
06:27 Flaps:1º at 197 Knots
06:28 Flaps:Up at 239 Knots
06:32 Gear Down: 328 Knots
06:36 Gear Up: 328 Knots
06:41 Wind:321º@005 Knots Heading: 330º Ground Speed: 485 Knots Altitude 27322 ft
06:56 Wind:073º@033 Knots Heading: 334º Ground Speed: 496 Knots Altitude 33910 ft
07:11 Wind:090º@028 Knots Heading: 331º Ground Speed: 504 Knots Altitude 33897 ft
07:26 Wind:105º@028 Knots Heading: 330º Ground Speed: 510 Knots Altitude 33877 ft
07:41 Wind:097º@029 Knots Heading: 330º Ground Speed: 508 Knots Altitude 33828 ft
07:56 Wind:093º@031 Knots Heading: 331º Ground Speed: 509 Knots Altitude 33802 ft
08:11 Wind:092º@028 Knots Heading: 330º Ground Speed: 507 Knots Altitude 33756 ft
08:26 Wind:092º@027 Knots Heading: 330º Ground Speed: 507 Knots Altitude 33694 ft
08:41 Wind:090º@029 Knots Heading: 330º
Ground Speed: 507 Knots Altitude 33723 ft
08:56 Wind:088º@029 Knots Heading: 330º Ground Speed: 507 Knots Altitude 33645 ft
09:11 Wind:089º@028 Knots Heading: 316º Ground Speed: 513 Knots Altitude 33700 ft
09:26 Wind:091º@032 Knots Heading: 315º Ground Speed: 518 Knots Altitude 33733 ft
09:41 Wind:093º@031 Knots Heading: 341º Ground Speed: 506 Knots Altitude 33956 ft
09:56 Wind:091º@023 Knots Heading: 340º Ground Speed: 503 Knots Altitude 34028 ft
10:00 UTC Jump: added 1 Hour to Log
10:00 UTC Jump: removed 1 Hour from Log
10:11 Wind:110º@016 Knots Heading: 338º Ground Speed: 505 Knots Altitude 33789 ft
10:26 Wind:166º@010 Knots Heading: 337º Ground Speed: 501 Knots Altitude 34849 ft
10:26 TOC
10:26 Fuel Weight: 65484 Lb
10:41 Wind:212º@012 Knots Heading: 323º Ground Speed: 495 Knots Altitude 35721 ft
10:56 Wind:235º@019 Knots Heading: 328º Ground Speed: 491 Knots
Altitude 35784 ft
11:11 Wind:246º@036 Knots Heading: 326º Ground Speed: 485 Knots Altitude 35974 ft
11:26 Wind:246º@053 Knots Heading: 321º Ground Speed: 480 Knots Altitude 35826 ft
11:41 Wind:247º@066 Knots Heading: 319º Ground Speed: 474 Knots Altitude 35862 ft
11:56 Wind:252º@078 Knots Heading: 317º Ground Speed: 463 Knots Altitude 35869 ft
12:11 Wind:253º@075 Knots Heading: 349º Ground Speed: 502 Knots Altitude 35859 ft
12:26 Wind:250º@066 Knots Heading: 346º Ground Speed: 500 Knots Altitude 35944 ft
12:37 TOD
12:37 Fuel Weight: 31600 Lb
12:41 Wind:240º@026 Knots Heading: 333º Ground Speed: 451 Knots Altitude 31486 ft
12:56 Wind:282º@010 Knots Heading: 277º Ground Speed: 261 Knots Altitude 6912 ft
13:04 Flaps:1º at 207 Knots
13:04 Flaps:5º at 209 Knots
13:06 Gear Down: 215 Knots
13:06 Flaps:15º at 208 Knots
13:07 Flaps:30º at 189 Knots
13:07 Flaps:35º at 1
59 Knots
13:08 Flaps:Full at 156 Knots
13:08 TouchDown:Rate -418 ft/min Speed: 144 Knots
13:09 VATSIM:LTFM 172150Z 00000KT 9999 SCT022 22/20 Q1008 NOSIG
13:09 Land
13:09 Wind:006º@004 Knots
13:09 Heading: 359º
13:09 Flight Duration: 06:43
13:09 Landing Weight: 534068 Lbs
13:09 POS N41º 16´ 33´´ E028º 43´ 39´´
13:18 Parking brakes on
13:18 Block to Block Duration: 07:02
13:18 Final Fuel: 26730 Lbls
13:18 Spent Fuel: 114568 Lbls
13:18 Flight Length: 3232 NM
13:18 TOD Land Length: 168 NM

Text Link of Flight Log http://www.candanair.net/acars/logs/CXD07920200618061300.txt
   

[ Back ]